Time;durP1;ratioP1;P1;durP2;ratioP2;P2;SDS_P1;SDS_P2;PMS_P1;PMS_P2;Temp;Humidity;BMP_temperature;BMP_pressure;BME280_temperature;BME280_humidity;BME280_pressure;Samples;Min_cycle;Max_cycle;Signal;HPM_P1;HPM_P2
2023/03/16 00:01:03;;;;;;;5.87;3.33;;;;;;;4.20;95.73;101806.50;5130411;27;20052;-36
2023/03/16 00:03:29;;;;;;;4.38;3.17;;;;;;;4.22;95.64;101796.50;5131449;27;20020;-36
2023/03/16 00:05:54;;;;;;;4.03;3.00;;;;;;;4.17;95.70;101797.00;5131461;27;20034;-36
2023/03/16 00:08:19;;;;;;;4.33;3.20;;;;;;;4.24;95.93;101799.81;5130772;27;20023;-36
2023/03/16 00:10:46;;;;;;;5.07;2.90;;;;;;;4.24;95.42;101787.28;5131126;27;20036;-36
2023/03/16 00:13:18;;;;;;;3.72;2.97;;;;;;;4.33;96.89;101791.63;5122217;27;20031;-36
2023/03/16 00:15:55;;;;;;;4.55;3.08;;;;;;;4.28;95.71;101779.75;5116616;28;20034;-36
2023/03/16 00:18:21;;;;;;;;;;;;;;;4.37;94.79;101781.44;5117870;28;20055;-36
2023/03/16 00:20:55;;;;;;;4.43;3.47;;;;;;;4.31;96.31;101782.94;5117134;28;20309;-36
2023/03/16 00:23:27;;;;;;;4.63;3.33;;;;;;;4.35;96.53;101791.50;5116522;28;20023;-36
2023/03/16 00:26:04;;;;;;;5.90;3.30;;;;;;;4.27;95.96;101773.56;5117033;28;20031;-36
2023/03/16 00:28:34;;;;;;;4.75;3.17;;;;;;;4.35;96.04;101772.75;5116715;28;20119;-36
2023/03/16 00:31:04;;;;;;;5.13;3.42;;;;;;;4.30;96.79;101756.34;5117528;28;20104;-36
2023/03/16 00:33:33;;;;;;;8.25;4.00;;;;;;;4.36;96.43;101769.06;5116521;28;20031;-36
2023/03/16 00:36:02;;;;;;;4.72;3.40;;;;;;;4.36;96.88;101769.06;5116555;28;20031;-36
2023/03/16 00:38:34;;;;;;;5.53;3.63;;;;;;;4.39;97.10;101771.38;5116490;28;20047;-36
2023/03/16 00:41:04;;;;;;;4.00;3.33;;;;;;;4.41;96.77;101765.88;5116405;28;20032;-36
2023/03/16 00:43:31;;;;;;;4.30;3.28;;;;;;;4.42;97.28;101762.19;5116360;28;20030;-36
2023/03/16 00:46:05;;;;;;;5.75;3.38;;;;;;;4.34;97.17;101747.81;5116983;28;20031;-36
2023/03/16 00:48:33;;;;;;;5.07;3.40;;;;;;;4.47;97.63;101759.84;5116268;28;20483;-36
2023/03/16 00:51:00;;;;;;;4.22;3.05;;;;;;;4.37;97.22;101741.25;5116287;28;20031;-36
2023/03/16 00:53:25;;;;;;;3.83;2.92;;;;;;;4.45;97.32;101745.78;5115983;28;20030;-36
2023/03/16 00:55:52;;;;;;;3.93;3.40;;;;;;;4.39;96.74;101732.06;5115922;28;20031;-36
2023/03/16 00:58:18;;;;;;;4.75;3.30;;;;;;;4.49;97.00;101747.09;5116164;28;20097;-36
2023/03/16 01:00:45;;;;;;;5.05;3.33;;;;;;;4.45;97.58;101748.47;5116453;28;20464;-36
2023/03/16 01:03:10;;;;;;;;;;;;;;;4.51;95.94;101745.09;5116762;28;20065;-36
2023/03/16 01:05:39;;;;;;;4.95;3.45;;;;;;;4.46;96.21;101731.38;5116917;28;20006;-36
2023/03/16 01:08:05;;;;;;;4.20;2.75;;;;;;;4.48;97.36;101729.38;5115898;28;20053;-36
2023/03/16 01:10:30;;;;;;;4.87;3.47;;;;;;;4.48;97.62;101721.31;5116455;28;20031;-36
2023/03/16 01:12:55;;;;;;;4.40;3.20;;;;;;;4.49;96.72;101718.50;5115908;28;20395;-37
2023/03/16 01:15:21;;;;;;;3.90;3.30;;;;;;;4.48;97.30;101718.66;5115838;28;20020;-36
2023/03/16 01:17:46;;;;;;;5.47;3.42;;;;;;;4.34;97.20;101690.72;5115820;28;20024;-36
2023/03/16 01:20:14;;;;;;;4.27;3.53;;;;;;;4.49;97.35;101705.09;5115631;28;20032;-36
2023/03/16 01:22:41;;;;;;;5.07;3.42;;;;;;;4.49;97.37;101699.75;5115622;28;20055;-36
2023/03/16 01:25:06;;;;;;;5.53;3.20;;;;;;;4.45;96.42;101697.59;5114888;28;20038;-36
2023/03/16 01:27:32;;;;;;;4.63;3.08;;;;;;;4.50;96.40;101700.59;5115278;28;20020;-36
2023/03/16 01:29:57;;;;;;;3.93;2.97;;;;;;;4.46;96.63;101693.88;5115884;28;20060;-36
2023/03/16 01:32:22;;;;;;;3.60;2.80;;;;;;;4.51;96.82;101695.03;5115184;28;20522;-36
2023/03/16 01:34:48;;;;;;;5.90;3.27;;;;;;;4.46;97.47;101684.00;5115814;28;20153;-36
2023/03/16 01:37:13;;;;;;;5.20;3.07;;;;;;;4.48;98.17;101689.19;5115035;28;20029;-36
2023/03/16 01:39:38;;;;;;;5.67;3.43;;;;;;;4.50;97.75;101695.22;5115413;28;20034;-36
2023/03/16 01:42:04;;;;;;;6.57;3.70;;;;;;;4.50;98.34;101685.34;5115221;28;20035;-36
2023/03/16 01:44:54;;;;;;;4.70;3.13;;;;;;;4.54;97.88;101688.50;5115593;28;20585;-36
2023/03/16 01:47:19;;;;;;;4.43;3.17;;;;;;;4.47;98.09;101687.53;5113952;28;20024;-36
2023/03/16 01:49:47;;;;;;;3.70;2.97;;;;;;;4.47;98.13;101690.19;5115522;28;20031;-36
2023/03/16 01:52:26;;;;;;;3.58;3.17;;;;;;;4.48;98.25;101686.50;5114727;28;20273;-36
2023/03/16 01:54:59;;;;;;;5.15;3.53;;;;;;;4.39;99.19;101683.88;5115290;28;20030;-36
2023/03/16 01:57:31;;;;;;;3.85;2.97;;;;;;;4.30;99.06;101663.47;5114982;28;20019;-35
2023/03/16 02:00:08;;;;;;;4.47;3.13;;;;;;;4.35;99.04;101660.28;5115224;28;20027;-35
2023/03/16 02:02:34;;;;;;;4.30;3.28;;;;;;;4.45;98.70;101678.84;5115219;28;20048;-36
2023/03/16 02:05:16;;;;;;;5.10;3.47;;;;;;;4.44;98.98;101669.97;5115168;28;20101;-35
2023/03/16 02:07:57;;;;;;;4.82;3.42;;;;;;;4.36;99.55;101652.06;5114772;28;20046;-35
2023/03/16 02:10:25;;;;;;;5.60;3.03;;;;;;;4.34;100.00;101651.41;5114991;28;20034;-36
2023/03/16 02:12:52;;;;;;;4.05;3.30;;;;;;;4.43;100.00;101657.56;5115216;28;20110;-36
2023/03/16 02:15:17;;;;;;;4.45;3.55;;;;;;;4.32;99.91;101645.38;5115202;28;20080;-36
2023/03/16 02:17:45;;;;;;;4.70;3.60;;;;;;;4.39;98.68;101654.41;5114624;28;20425;-35
2023/03/16 02:20:10;;;;;;;4.53;3.80;;;;;;;4.41;99.47;101650.72;5114606;28;20032;-36
2023/03/16 02:22:43;;;;;;;6.05;3.20;;;;;;;4.45;100.00;101646.69;5114751;28;20047;-35
2023/03/16 02:25:11;;;;;;;3.83;3.05;;;;;;;4.43;98.96;101644.16;5114836;28;20027;-35
2023/03/16 02:28:09;;;;;;;4.22;3.35;;;;;;;4.45;99.91;101649.38;5114071;28;20030;-35
2023/03/16 02:30:35;;;;;;;3.67;3.30;;;;;;;4.45;100.00;101650.19;5079497;28;20040;-35
2023/03/16 02:33:03;;;;;;;;;;;;;;;4.50;99.18;101644.34;5114547;28;20386;-36
2023/03/16 02:35:29;;;;;;;4.93;3.40;;;;;;;4.41;100.00;101650.72;5114376;28;19962;-36
2023/03/16 02:37:54;;;;;;;6.75;3.72;;;;;;;4.36;100.00;101641.34;5114071;28;20047;-36
2023/03/16 02:40:25;;;;;;;5.10;3.20;;;;;;;4.34;100.00;101646.06;5114782;28;20027;-35
2023/03/16 02:43:05;;;;;;;4.72;3.40;;;;;;;4.32;100.00;101650.72;5113993;28;20396;-35
2023/03/16 02:45:43;;;;;;;6.70;3.97;;;;;;;4.28;100.00;101643.19;5114502;28;20028;-35
2023/03/16 02:48:14;;;;;;;3.60;3.30;;;;;;;4.31;100.00;101650.91;5114414;27;20073;-35
2023/03/16 02:50:48;;;;;;;4.75;3.53;;;;;;;4.30;100.00;101642.03;5114390;28;20111;-35
2023/03/16 02:53:15;;;;;;;4.30;3.38;;;;;;;4.25;100.00;101640.88;5114068;28;20031;-35
2023/03/16 02:55:40;;;;;;;5.88;3.85;;;;;;;4.28;100.00;101645.88;5114101;28;20020;-35
2023/03/16 02:58:05;;;;;;;5.03;3.43;;;;;;;4.27;100.00;101645.03;5114018;28;20024;-35
2023/03/16 03:00:31;;;;;;;5.33;3.63;;;;;;;4.29;100.00;101632.31;5114234;28;20312;-35
2023/03/16 03:02:57;;;;;;;5.97;4.13;;;;;;;4.30;100.00;101633.16;5114495;28;20051;-36
2023/03/16 03:05:23;;;;;;;7.93;4.78;;;;;;;4.25;100.00;101625.66;5114545;28;20081;-36
2023/03/16 03:07:48;;;;;;;3.67;3.20;;;;;;;4.31;100.00;101632.16;5113935;28;20032;-36
2023/03/16 03:10:14;;;;;;;4.43;3.53;;;;;;;4.31;100.00;101632.16;5114254;28;20054;-36
2023/03/16 03:12:39;;;;;;;4.70;3.42;;;;;;;4.34;100.00;101627.31;5113932;28;20027;-36
2023/03/16 03:15:06;;;;;;;4.33;3.33;;;;;;;4.26;100.00;101615.78;5113632;28;20471;-36
2023/03/16 03:17:31;;;;;;;4.47;3.28;;;;;;;4.33;100.00;101630.97;5113521;28;20028;-36
2023/03/16 03:19:58;;;;;;;6.23;3.63;;;;;;;4.30;100.00;101627.81;5114483;28;20050;-36
2023/03/16 03:22:25;;;;;;;4.22;3.58;;;;;;;4.32;100.00;101623.94;5113425;28;20031;-36
2023/03/16 03:24:50;;;;;;;3.50;3.03;;;;;;;4.30;100.00;101623.28;5113818;28;20027;-36
2023/03/16 03:27:16;;;;;;;4.55;3.65;;;;;;;4.34;100.00;101615.72;5113547;28;20076;-36
2023/03/16 03:29:41;;;;;;;5.07;3.20;;;;;;;4.36;100.00;101608.38;5114377;28;20038;-36
2023/03/16 03:32:07;;;;;;;3.77;2.90;;;;;;;4.30;100.00;101612.59;5113714;28;20040;-36
2023/03/16 03:34:33;;;;;;;4.45;3.25;;;;;;;4.27;100.00;101609.41;5113747;28;20024;-36
2023/03/16 03:36:59;;;;;;;4.07;3.10;;;;;;;4.32;100.00;101613.22;5113716;28;20024;-36
2023/03/16 03:39:25;;;;;;;4.20;3.17;;;;;;;4.29;100.00;101612.72;5114231;28;20030;-36
2023/03/16 03:41:53;;;;;;;4.20;3.30;;;;;;;4.30;100.00;101615.25;5113660;28;20032;-36
2023/03/16 03:44:23;;;;;;;3.42;2.90;;;;;;;4.28;100.00;101613.75;5114017;28;20743;-36
2023/03/16 03:46:48;;;;;;;5.05;3.38;;;;;;;4.19;100.00;101596.84;5113377;28;20035;-36
2023/03/16 03:49:14;;;;;;;5.57;3.22;;;;;;;4.21;100.00;101599.38;5117129;28;20039;-36
2023/03/16 03:51:40;;;;;;;4.07;3.17;;;;;;;4.25;100.00;101603.41;5117514;28;20126;-36
2023/03/16 03:54:06;;;;;;;4.03;3.20;;;;;;;4.23;100.00;101600.88;5117514;28;20102;-36
2023/03/16 03:56:31;;;;;;;4.28;3.17;;;;;;;4.28;100.00;101605.72;5117821;28;20019;-36
2023/03/16 03:58:56;;;;;;;4.00;3.27;;;;;;;4.27;100.00;101602.19;5117357;28;20073;-36
2023/03/16 04:01:22;;;;;;;4.53;3.30;;;;;;;4.28;100.00;101595.00;5117775;28;20304;-36
2023/03/16 04:03:47;;;;;;;4.87;3.10;;;;;;;4.28;100.00;101593.16;5117510;28;20111;-36
2023/03/16 04:06:13;;;;;;;3.97;3.13;;;;;;;4.26;100.00;101591.69;5117476;28;20032;-36
2023/03/16 04:08:38;;;;;;;4.63;3.50;;;;;;;4.21;100.00;101578.81;5117175;28;20502;-36
2023/03/16 04:11:04;;;;;;;6.00;3.60;;;;;;;4.21;100.00;101580.66;5117970;28;20031;-35
2023/03/16 04:13:29;;;;;;;3.40;3.03;;;;;;;4.27;100.00;101588.81;5117096;28;20024;-35
2023/03/16 04:15:58;;;;;;;3.77;2.70;;;;;;;4.23;100.00;101575.94;5117345;28;20353;-35
2023/03/16 04:18:24;;;;;;;6.07;3.35;;;;;;;4.27;100.00;101578.09;5117230;28;20031;-35
2023/03/16 04:20:52;;;;;;;4.80;2.90;;;;;;;4.28;100.00;101585.13;5116626;28;20034;-35
2023/03/16 04:23:18;;;;;;;5.68;3.20;;;;;;;4.25;100.00;101580.13;5116795;28;20030;-35
2023/03/16 04:25:44;;;;;;;4.68;3.03;;;;;;;4.21;100.00;101572.63;5117137;28;20047;-35
2023/03/16 04:28:09;;;;;;;5.63;3.10;;;;;;;4.26;100.00;101576.44;5117038;28;20055;-36
2023/03/16 04:30:35;;;;;;;4.25;2.85;;;;;;;4.22;100.00;101568.94;5117590;28;20016;-35
2023/03/16 04:33:00;;;;;;;5.50;3.10;;;;;;;4.26;100.00;101570.25;5116632;28;20376;-35
2023/03/16 04:35:26;;;;;;;5.10;3.00;;;;;;;4.25;100.00;101576.63;5117202;28;20027;-35
2023/03/16 04:37:51;;;;;;;4.03;3.08;;;;;;;4.28;100.00;101581.63;5116603;28;20364;-36
2023/03/16 04:40:18;;;;;;;5.17;3.47;;;;;;;4.27;100.00;101572.75;5117079;28;20031;-35
2023/03/16 04:42:45;;;;;;;4.13;3.10;;;;;;;4.24;100.00;101567.72;5116351;28;20046;-35
2023/03/16 04:45:11;;;;;;;3.97;2.70;;;;;;;4.33;100.00;101573.91;5116640;27;20123;-35
2023/03/16 04:47:37;;;;;;;;;;;;;;;4.36;100.00;101577.09;5116943;28;20363;-35
2023/03/16 04:50:04;;;;;;;3.60;2.42;;;;;;;4.32;100.00;101573.06;5116353;28;19918;-36
2023/03/16 04:52:30;;;;;;;4.40;3.20;;;;;;;4.24;100.00;101562.38;5115988;28;20100;-35
2023/03/16 04:54:55;;;;;;;2.90;2.53;;;;;;;4.24;100.00;101559.69;5116855;28;20467;-35
2023/03/16 04:57:21;;;;;;;4.80;3.00;;;;;;;4.25;100.00;101561.41;5116178;28;20415;-36
2023/03/16 04:59:47;;;;;;;3.33;2.72;;;;;;;4.30;100.00;101576.94;5116366;28;20384;-35
2023/03/16 05:02:13;;;;;;;3.93;2.60;;;;;;;4.29;100.00;101575.25;5116251;28;20404;-36
2023/03/16 05:04:38;;;;;;;4.82;2.70;;;;;;;4.23;100.00;101559.88;5116932;27;20299;-36
2023/03/16 05:07:04;;;;;;;7.18;3.08;;;;;;;4.28;100.00;101563.72;5116020;28;20127;-36
2023/03/16 05:09:29;;;;;;;6.63;2.87;;;;;;;4.28;100.00;101562.88;5116264;28;20024;-35
2023/03/16 05:11:55;;;;;;;3.83;3.10;;;;;;;4.30;100.00;101560.88;5115908;28;20027;-36
2023/03/16 05:14:20;;;;;;;5.40;2.97;;;;;;;4.28;100.00;101557.53;5115926;28;20039;-36
2023/03/16 05:16:45;;;;;;;3.90;3.00;;;;;;;4.22;100.00;101559.03;5115596;28;20027;-35
2023/03/16 05:19:11;;;;;;;5.27;3.00;;;;;;;4.22;100.00;101551.00;5116109;28;20023;-36
2023/03/16 05:21:37;;;;;;;3.87;2.90;;;;;;;4.26;100.00;101554.19;5115921;27;20024;-35
2023/03/16 05:24:06;;;;;;;4.63;2.90;;;;;;;4.22;100.00;101548.34;5116269;28;20276;-35
2023/03/16 05:26:32;;;;;;;3.58;2.95;;;;;;;4.25;100.00;101548.00;5115657;28;20028;-35
2023/03/16 05:28:58;;;;;;;4.47;2.85;;;;;;;4.29;100.00;101548.47;5115477;27;20034;-35
2023/03/16 05:31:26;;;;;;;4.63;3.28;;;;;;;4.22;100.00;101542.16;5115378;28;20053;-35
2023/03/16 05:33:52;;;;;;;5.43;3.10;;;;;;;4.26;100.00;101554.19;5116086;28;20153;-36
2023/03/16 05:36:19;;;;;;;4.18;2.75;;;;;;;4.20;100.00;101544.16;5115607;28;20030;-36
2023/03/16 05:38:45;;;;;;;;;;;;;;;4.34;100.00;101557.69;5115435;28;20475;-35
2023/03/16 05:41:10;;;;;;;5.15;2.63;;;;;;;4.25;100.00;101541.81;5115118;28;19912;-36
2023/03/16 05:43:36;;;;;;;4.75;2.55;;;;;;;4.29;100.00;101538.59;5115292;28;20110;-35
2023/03/16 05:46:01;;;;;;;5.00;2.77;;;;;;;4.25;100.00;101537.28;5115817;28;20027;-35
2023/03/16 05:48:26;;;;;;;4.23;2.90;;;;;;;4.31;100.00;101541.94;5115175;28;20467;-36
2023/03/16 05:50:52;;;;;;;4.30;2.80;;;;;;;4.30;100.00;101539.47;5115985;28;20028;-35
2023/03/16 05:53:18;;;;;;;5.05;2.35;;;;;;;4.34;100.00;101535.41;5114759;28;20030;-35
2023/03/16 05:55:43;;;;;;;4.72;2.88;;;;;;;4.33;100.00;101533.75;5114785;28;20414;-36
2023/03/16 05:58:10;;;;;;;6.23;2.47;;;;;;;4.30;100.00;101537.63;5115284;27;20031;-35
2023/03/16 06:00:38;;;;;;;4.38;2.70;;;;;;;4.23;100.00;101517.88;5115198;27;20020;-35
2023/03/16 06:03:03;;;;;;;4.03;2.83;;;;;;;4.33;100.00;101539.09;5115585;28;20052;-35
2023/03/16 06:05:30;;;;;;;4.50;2.92;;;;;;;4.33;100.00;101528.38;5115165;28;20414;-35
2023/03/16 06:07:56;;;;;;;4.47;2.38;;;;;;;4.33;100.00;101537.25;5114756;27;20440;-35
2023/03/16 06:10:22;;;;;;;4.65;3.17;;;;;;;4.25;100.00;101515.88;5114286;28;20102;-35
2023/03/16 06:12:48;;;;;;;3.20;2.65;;;;;;;4.29;100.00;101538.59;5115264;28;20110;-35
2023/03/16 06:15:13;;;;;;;6.63;3.20;;;;;;;4.31;100.00;101530.41;5114942;28;20038;-35
2023/03/16 06:17:40;;;;;;;4.70;3.13;;;;;;;4.36;100.00;101533.41;5114628;28;20077;-36
2023/03/16 06:20:09;;;;;;;3.95;2.42;;;;;;;4.33;100.00;101537.25;5114612;28;20028;-36
2023/03/16 06:22:36;;;;;;;4.97;2.80;;;;;;;4.30;100.00;101534.09;5114445;28;20107;-35
2023/03/16 06:25:01;;;;;;;3.72;2.90;;;;;;;4.36;100.00;101534.22;5115378;28;20059;-35
2023/03/16 06:27:27;;;;;;;4.83;2.77;;;;;;;4.30;100.00;101518.88;5115048;28;20086;-35
2023/03/16 06:29:52;;;;;;;5.63;2.90;;;;;;;4.38;100.00;101531.38;5114733;28;20024;-36
2023/03/16 06:32:18;;;;;;;3.97;2.67;;;;;;;4.38;100.00;101526.84;5114946;28;20028;-35
2023/03/16 06:34:43;;;;;;;3.43;2.83;;;;;;;4.34;100.00;101522.00;5114506;28;20254;-36
2023/03/16 06:37:08;;;;;;;5.93;2.63;;;;;;;4.42;100.00;101542.59;5114036;28;20169;-35
2023/03/16 06:39:34;;;;;;;4.00;2.63;;;;;;;4.43;100.00;101529.00;5114408;28;20024;-35
2023/03/16 06:41:59;;;;;;;6.17;2.83;;;;;;;4.43;100.00;101531.69;5115034;28;20459;-35
2023/03/16 06:44:25;;;;;;;4.40;3.00;;;;;;;4.44;100.00;101532.50;5114541;28;20104;-35
2023/03/16 06:46:50;;;;;;;3.90;2.87;;;;;;;4.47;100.00;101534.84;5114170;28;20023;-35
2023/03/16 06:49:15;;;;;;;4.87;2.67;;;;;;;4.47;100.00;101540.22;5112917;28;20456;-36
2023/03/16 06:51:41;;;;;;;7.80;3.23;;;;;;;4.52;100.00;101535.16;5114111;28;20322;-36
2023/03/16 06:54:07;;;;;;;4.83;2.90;;;;;;;4.50;100.00;101521.97;5114388;28;20026;-37
2023/03/16 06:56:32;;;;;;;4.20;2.50;;;;;;;4.52;100.00;101524.47;5114429;28;20425;-34
2023/03/16 06:58:58;;;;;;;7.80;3.78;;;;;;;4.46;100.00;101503.72;5114837;28;20352;-36
2023/03/16 07:01:23;;;;;;;4.80;2.57;;;;;;;4.48;100.00;101505.22;5114809;28;20051;-36
2023/03/16 07:03:49;;;;;;;4.20;2.67;;;;;;;4.55;100.00;101527.63;5114322;28;20249;-35
2023/03/16 07:06:15;;;;;;;4.43;2.43;;;;;;;4.58;100.00;101515.72;5114259;28;20721;-35
2023/03/16 07:08:41;;;;;;;;;;;;;;;4.67;100.00;101511.16;5114345;28;20038;-36
2023/03/16 07:11:07;;;;;;;4.68;2.70;;;;;;;4.63;100.00;101508.81;5113829;28;19912;-37
2023/03/16 07:13:34;;;;;;;4.85;2.72;;;;;;;4.62;100.00;101500.97;5113842;28;20044;-36
2023/03/16 07:16:00;;;;;;;5.97;2.97;;;;;;;4.72;100.00;101512.28;5114198;28;20357;-36
2023/03/16 07:18:25;;;;;;;3.38;2.60;;;;;;;4.74;100.00;101504.94;5113885;28;20085;-36
2023/03/16 07:20:52;;;;;;;6.95;3.20;;;;;;;4.77;100.00;101509.91;5114065;28;20467;-36
2023/03/16 07:23:18;;;;;;;4.53;2.50;;;;;;;4.74;100.00;101504.09;5114728;28;20383;-35
2023/03/16 07:25:43;;;;;;;3.38;2.38;;;;;;;4.81;100.00;101500.53;5117717;28;20554;-36
2023/03/16 07:28:09;;;;;;;3.73;2.67;;;;;;;4.79;100.00;101499.88;5117698;28;20020;-37
2023/03/16 07:30:34;;;;;;;5.67;3.13;;;;;;;4.88;100.00;101500.63;5118796;28;20023;-37
2023/03/16 07:33:00;;;;;;;4.50;3.03;;;;;;;4.94;100.00;101501.78;5117902;28;20058;-42
2023/03/16 07:35:26;;;;;;;4.82;2.92;;;;;;;4.97;100.00;101502.25;5118100;28;20053;-37
2023/03/16 07:37:51;;;;;;;4.38;2.80;;;;;;;4.99;100.00;101496.72;5118319;28;20448;-37
2023/03/16 07:40:17;;;;;;;3.63;2.70;;;;;;;5.05;100.00;101490.66;5118054;28;20471;-37
2023/03/16 07:42:43;;;;;;;3.38;2.60;;;;;;;5.07;100.00;101497.47;5117849;28;20503;-36
2023/03/16 07:45:09;;;;;;;4.07;2.90;;;;;;;5.11;100.00;101500.66;5118195;28;20064;-41
2023/03/16 07:47:34;;;;;;;;;;;;;;;5.15;100.00;101488.56;5118023;28;20034;-37
2023/03/16 07:50:00;;;;;;;5.45;3.17;;;;;;;5.15;100.00;101492.06;5117588;28;19907;-36
2023/03/16 07:52:26;;;;;;;5.13;2.53;;;;;;;5.18;100.00;101498.94;5117313;28;20034;-36
2023/03/16 07:54:51;;;;;;;3.72;2.55;;;;;;;5.20;100.00;101491.53;5118326;27;20073;-36
2023/03/16 07:57:16;;;;;;;4.67;2.90;;;;;;;5.22;100.00;101485.97;5117734;27;20031;-36
2023/03/16 07:59:42;;;;;;;3.20;2.50;;;;;;;5.19;100.00;101479.16;5117616;28;20104;-36
2023/03/16 08:02:13;;;;;;;3.88;2.65;;;;;;;5.28;100.00;101483.44;5116857;28;20471;-36
2023/03/16 08:04:41;;;;;;;4.03;2.28;;;;;;;5.32;100.00;101489.25;5117281;28;20059;-36
2023/03/16 08:07:07;;;;;;;6.68;3.88;;;;;;;5.35;100.00;101497.78;5117162;28;20024;-36
2023/03/16 08:09:34;;;;;;;5.47;3.17;;;;;;;5.39;100.00;101493.72;5117741;28;20107;-36
2023/03/16 08:12:04;;;;;;;4.82;3.08;;;;;;;5.44;100.00;101493.19;5117587;27;20429;-36
2023/03/16 08:14:33;;;;;;;4.53;3.03;;;;;;;5.47;100.00;101483.94;5117604;28;20534;-36
2023/03/16 08:17:02;;;;;;;5.07;3.17;;;;;;;5.49;100.00;101471.16;5116981;28;20035;-36
2023/03/16 08:19:27;;;;;;;6.20;3.60;;;;;;;5.55;100.00;101481.16;5117551;28;20035;-36
2023/03/16 08:21:53;;;;;;;4.97;3.00;;;;;;;5.67;100.00;101493.97;5116886;28;20038;-37
2023/03/16 08:24:19;;;;;;;6.27;3.33;;;;;;;5.62;100.00;101479.44;5117251;27;20051;-36
2023/03/16 08:26:44;;;;;;;5.85;2.85;;;;;;;5.79;100.00;101494.34;5116857;28;20023;-35
2023/03/16 08:29:09;;;;;;;3.63;3.00;;;;;;;5.79;100.00;101497.03;5116664;28;20073;-36
2023/03/16 08:31:35;;;;;;;3.07;2.60;;;;;;;5.80;100.00;101496.00;5117053;28;20031;-35
2023/03/16 08:34:02;;;;;;;5.15;2.80;;;;;;;5.85;100.00;101504.34;5115898;28;20028;-35
2023/03/16 08:36:27;;;;;;;;;;;;;;;5.93;100.00;101498.09;5117706;28;20031;-35
2023/03/16 08:38:53;;;;;;;2.83;2.33;;;;;;;5.90;100.00;101498.41;5116529;28;19915;-35
2023/03/16 08:41:20;;;;;;;4.93;2.75;;;;;;;6.02;100.00;101501.53;5116797;28;20051;-35
2023/03/16 08:43:45;;;;;;;5.30;2.55;;;;;;;6.04;100.00;101491.41;5116235;28;20565;-35
2023/03/16 08:46:12;;;;;;;8.35;3.42;;;;;;;6.09;100.00;101497.91;5116772;28;20110;-36
2023/03/16 08:48:39;;;;;;;3.60;2.63;;;;;;;6.15;100.00;101490.97;5116298;28;20468;-36
2023/03/16 08:51:05;;;;;;;2.78;2.28;;;;;;;6.23;100.00;101490.03;5116354;28;20476;-35
2023/03/16 08:53:31;;;;;;;3.65;2.70;;;;;;;6.31;99.72;101493.44;5116061;28;20141;-35
2023/03/16 08:56:08;;;;;;;3.25;2.50;;;;;;;6.39;98.80;101489.81;5116317;28;20065;-36
2023/03/16 08:58:35;;;;;;;4.60;2.40;;;;;;;6.42;97.76;101482.22;5115892;28;20015;-35
2023/03/16 09:01:04;;;;;;;4.38;3.05;;;;;;;6.48;98.72;101485.16;5116419;28;20075;-36
2023/03/16 09:03:31;;;;;;;4.18;2.40;;;;;;;6.48;96.28;101471.75;5116656;28;20035;-36
2023/03/16 09:06:05;;;;;;;7.30;3.08;;;;;;;6.41;95.38;101472.50;5116656;28;20035;-35
2023/03/16 09:08:31;;;;;;;3.17;2.50;;;;;;;6.50;96.23;101477.78;5116548;28;20027;-35
2023/03/16 09:11:06;;;;;;;6.15;2.70;;;;;;;6.52;96.05;101467.66;5115979;28;20023;-36
2023/03/16 09:13:32;;;;;;;2.55;2.10;;;;;;;6.47;92.50;101459.34;5115844;28;20063;-35
2023/03/16 09:15:58;;;;;;;5.20;2.42;;;;;;;6.58;93.77;101461.53;5116414;28;20050;-39
2023/03/16 09:18:26;;;;;;;3.58;2.40;;;;;;;6.59;93.26;101463.22;5116044;28;20502;-36
2023/03/16 09:20:56;;;;;;;5.53;2.63;;;;;;;6.61;92.49;101461.16;5115748;28;20463;-36
2023/03/16 09:23:22;;;;;;;4.78;2.42;;;;;;;6.66;93.46;101456.03;5116002;28;20437;-36
2023/03/16 09:25:47;;;;;;;3.30;2.15;;;;;;;6.75;93.47;101449.53;5115417;28;20066;-35
2023/03/16 09:28:12;;;;;;;3.50;2.20;;;;;;;6.83;92.71;101454.78;5115632;28;20028;-36
2023/03/16 09:30:38;;;;;;;3.83;2.23;;;;;;;7.03;91.70;101464.88;5115925;28;20030;-35
2023/03/16 09:33:03;;;;;;;4.15;2.10;;;;;;;7.14;91.26;101454.44;5115285;28;20391;-35
2023/03/16 09:35:29;;;;;;;3.23;1.93;;;;;;;7.24;89.24;101454.13;5115232;28;20073;-35
2023/03/16 09:37:56;;;;;;;4.25;2.25;;;;;;;7.37;90.72;101451.53;5115458;28;20035;-36
2023/03/16 09:40:29;;;;;;;5.05;2.45;;;;;;;7.45;88.36;101448.69;5115460;28;20031;-36
2023/03/16 09:43:28;;;;;;;3.85;2.30;;;;;;;7.57;88.54;101446.31;5115284;28;20051;-36
2023/03/16 09:46:16;;;;;;;4.68;2.20;;;;;;;7.67;88.36;101451.34;5115061;28;20099;-36
2023/03/16 09:48:42;;;;;;;5.85;2.40;;;;;;;7.70;86.56;101453.63;5115211;28;20467;-36
2023/03/16 09:51:19;;;;;;;5.72;2.28;;;;;;;7.71;85.90;101447.19;5115509;28;20035;-36
2023/03/16 09:53:46;;;;;;;5.25;2.33;;;;;;;7.90;86.34;101449.19;5115435;28;20032;-36
2023/03/16 09:56:30;;;;;;;4.05;2.20;;;;;;;8.04;86.79;101443.88;5115939;28;20058;-36
2023/03/16 09:58:57;;;;;;;4.35;1.90;;;;;;;8.16;82.41;101447.69;5115122;27;20023;-36
2023/03/16 10:01:47;;;;;;;5.32;2.10;;;;;;;8.24;82.83;101444.78;5115215;28;20139;-36
2023/03/16 10:04:27;;;;;;;3.72;1.80;;;;;;;8.23;82.71;101432.38;5115011;28;20167;-36
2023/03/16 10:07:08;;;;;;;3.40;1.80;;;;;;;8.22;81.52;101422.63;5115385;28;20371;-36
2023/03/16 10:09:40;;;;;;;3.10;1.80;;;;;;;8.29;82.45;101438.81;5114522;28;20023;-36
2023/03/16 10:12:07;;;;;;;2.88;1.88;;;;;;;8.32;79.84;101430.31;5114813;28;20102;-36
2023/03/16 10:14:43;;;;;;;6.88;1.92;;;;;;;8.45;79.76;101422.34;5114533;28;20364;-36
2023/03/16 10:17:38;;;;;;;4.17;2.00;;;;;;;8.72;80.84;101417.81;5115306;28;20024;-36
2023/03/16 10:20:07;;;;;;;3.53;2.08;;;;;;;9.08;81.66;101427.41;5078308;28;20036;-36
2023/03/16 10:22:37;;;;;;;3.28;2.30;;;;;;;9.17;75.63;101424.28;5115030;28;20041;-36
2023/03/16 10:25:21;;;;;;;4.65;2.50;;;;;;;9.18;73.07;101415.19;5114558;28;20049;-36
2023/03/16 10:27:47;;;;;;;3.58;1.60;;;;;;;9.14;73.17;101402.31;5114831;28;20120;-36
2023/03/16 10:30:21;;;;;;;3.53;1.67;;;;;;;9.32;72.79;101413.31;5114782;27;20379;-36
2023/03/16 10:32:48;;;;;;;3.15;1.50;;;;;;;9.39;73.04;101414.13;5114715;28;20036;-36
2023/03/16 10:35:38;;;;;;;3.75;1.70;;;;;;;9.56;74.35;101406.41;5114404;28;20028;-36
2023/03/16 10:38:06;;;;;;;4.38;1.80;;;;;;;9.71;72.77;101408.84;5114113;28;20031;-36
2023/03/16 10:40:37;;;;;;;4.15;2.10;;;;;;;9.83;70.77;101406.34;5114522;28;20356;-36
2023/03/16 10:43:11;;;;;;;3.30;1.55;;;;;;;9.83;71.31;101393.69;5114809;28;20031;-36
2023/03/16 10:45:37;;;;;;;4.47;1.67;;;;;;;10.01;69.98;101399.22;5115103;28;20027;-36
2023/03/16 10:48:14;;;;;;;2.90;1.50;;;;;;;10.20;71.43;101399.34;5114183;28;20030;-36
2023/03/16 10:50:41;;;;;;;2.92;1.63;;;;;;;10.30;70.08;101397.06;5114750;28;20034;-36
2023/03/16 10:53:18;;;;;;;3.47;1.80;;;;;;;10.45;71.79;101389.50;5113866;28;20523;-36
2023/03/16 10:55:46;;;;;;;3.95;1.65;;;;;;;10.45;66.77;101391.38;5114949;28;20426;-36
2023/03/16 10:58:24;;;;;;;4.00;1.90;;;;;;;10.50;67.12;101384.25;5113837;28;20415;-36
2023/03/16 11:00:50;;;;;;;2.85;1.63;;;;;;;10.42;65.95;101376.38;5114269;28;20108;-36
2023/03/16 11:03:31;;;;;;;3.15;1.55;;;;;;;10.48;67.65;101380.09;5113774;28;20123;-36
2023/03/16 11:06:06;;;;;;;3.72;1.63;;;;;;;10.44;65.48;101377.03;5114563;28;20042;-36
2023/03/16 11:08:37;;;;;;;4.38;1.63;;;;;;;10.42;64.48;101365.56;5113970;28;20360;-36
2023/03/16 11:11:13;;;;;;;3.20;1.77;;;;;;;10.54;65.61;101360.28;5114007;28;20486;-36
2023/03/16 11:13:43;;;;;;;3.30;1.70;;;;;;;10.52;64.53;101360.53;5113717;28;20031;-36
2023/03/16 11:16:15;;;;;;;2.25;1.40;;;;;;;10.62;67.14;101367.31;5114774;28;20160;-36
2023/03/16 11:18:44;;;;;;;2.17;1.20;;;;;;;10.63;65.28;101350.88;5113593;28;20038;-36
2023/03/16 11:21:50;;;;;;;2.95;1.33;;;;;;;10.70;66.47;101351.66;5114670;28;20487;-36
2023/03/16 11:24:29;;;;;;;2.85;1.23;;;;;;;10.73;65.67;101342.28;5083201;28;20177;-36
2023/03/16 11:26:58;;;;;;;3.85;1.65;;;;;;;10.69;64.46;101332.97;5113837;28;20483;-36
2023/03/16 11:29:51;;;;;;;2.33;1.27;;;;;;;10.81;64.69;101347.41;5113817;28;20039;-36
2023/03/16 11:32:28;;;;;;;3.53;1.75;;;;;;;10.70;62.86;101338.16;5114059;28;20352;-38
2023/03/16 11:34:53;;;;;;;3.72;1.63;;;;;;;10.79;64.23;101333.31;5114061;28;20024;-36